Aviation Digital Data Service (ADDS)

Output produced by METARs form (0013 UTC 30 May 2020)
found at http://www.aviationweather.gov/metar/data/
 
TAPA 292300Z 11006KT 050V150 9999 FEW022 27/23 Q1017 NOSIG
TAPA 292200Z 10009KT 050V140 9999 FEW025 28/22 Q1016 NOSIG
TAPA 292100Z 10009KT 050V140 9999 FEW024 29/22 Q1016 NOSIG
TAF TAPA 292300Z 3000/3024 11010KT 9999 SCT022
       
TKPK 292200Z 11007KT 9999 FEW022 29/23 Q1016
TKPK 292100Z 09008KT 9999 FEW026 29/23 Q1016
TKPK 292343Z 3000/3024 09012KT P6SM FEW020 AMD NOT SKED 3002/3011
       
TKPN 292100Z 08012KT 9999 FEW024 30/22 Q1016
TAF TKPN 291700Z 2918/3018 10009KT 9999 SCT020
       
TQPF 292100Z 13009KT 9999 FEW018 28/22 Q1016
TAF TQPF 291700Z 2918/3018 11009KT 9999 SCT020
       
TUPJ 292210Z 15005KT 10SM FEW019 29/23 A3002 RMK Q1016
TUPJ 292100Z 15004KT 10SM FEW018 30/24 A3001 RMK Q1016 VIS16KM
TAF TUPJ 291700Z 2918/3018 12008KT 9999 SCT020